createdAt,value
2018-04-11T00:00:05.646Z,71.41
2018-04-11T00:02:40.308Z,71.29
2018-04-11T00:05:14.920Z,71.27
2018-04-11T00:07:49.547Z,71.45
2018-04-11T00:10:24.174Z,71.66
2018-04-11T00:12:58.592Z,71.29
2018-04-11T00:15:32.995Z,71.37
2018-04-11T00:18:07.639Z,71.30
2018-04-11T00:20:42.150Z,70.82
2018-04-11T00:23:16.705Z,70.57
2018-04-11T00:25:51.948Z,70.26
2018-04-11T00:28:26.562Z,70.17
2018-04-11T00:31:01.907Z,69.74
2018-04-11T00:33:36.546Z,69.09
2018-04-11T00:36:11.775Z,68.90
2018-04-11T00:38:46.444Z,68.92
2018-04-11T00:41:21.143Z,68.65
2018-04-11T00:43:55.742Z,68.71
2018-04-11T00:46:30.166Z,68.75
2018-04-11T00:49:04.682Z,68.70
2018-04-11T00:51:39.345Z,68.73
2018-04-11T00:54:14.658Z,68.86
2018-04-11T00:56:49.332Z,69.17
2018-04-11T00:59:23.907Z,69.00
2018-04-11T01:01:58.566Z,69.17
2018-04-11T01:04:33.044Z,68.99
2018-04-11T01:07:07.610Z,68.92
2018-04-11T01:09:43.008Z,68.85
2018-04-11T01:12:17.609Z,68.81
2018-04-11T01:14:52.110Z,68.56
2018-04-11T01:17:26.540Z,68.47
2018-04-11T01:20:01.140Z,68.45
2018-04-11T01:22:35.663Z,68.27
2018-04-11T01:25:11.049Z,68.33
2018-04-11T01:27:45.650Z,68.43
2018-04-11T01:30:20.919Z,68.39
2018-04-11T01:32:55.377Z,68.58
2018-04-11T01:35:29.991Z,68.36
2018-04-11T01:38:04.429Z,68.47
2018-04-11T01:40:39.807Z,68.41
2018-04-11T01:43:14.217Z,68.51
2018-04-11T01:45:48.829Z,68.50
2018-04-11T01:48:23.432Z,68.47
2018-04-11T01:50:58.048Z,68.28
2018-04-11T01:53:33.498Z,68.40
2018-04-11T01:56:08.075Z,68.27
2018-04-11T01:58:42.643Z,68.26
2018-04-11T02:01:17.236Z,68.40
2018-04-11T02:03:51.766Z,68.69
2018-04-11T02:06:27.178Z,68.65
2018-04-11T02:09:01.855Z,68.55
2018-04-11T02:11:36.442Z,68.55
2018-04-11T02:14:11.072Z,68.77
2018-04-11T02:16:45.567Z,68.70
2018-04-11T02:19:20.113Z,68.71
2018-04-11T02:21:54.717Z,68.88
2018-04-11T02:24:29.306Z,69.22
2018-04-11T02:27:03.865Z,69.41
2018-04-11T02:29:38.574Z,69.56
2018-04-11T02:32:13.350Z,69.77
2018-04-11T02:34:49.026Z,69.75
2018-04-11T02:37:23.596Z,69.57
2018-04-11T02:39:58.159Z,69.74
2018-04-11T02:42:33.457Z,69.81
2018-04-11T02:45:08.006Z,69.45
2018-04-11T02:47:42.527Z,69.57
2018-04-11T02:50:17.205Z,69.68
2018-04-11T02:52:52.446Z,69.67
2018-04-11T02:55:26.952Z,69.55
2018-04-11T02:58:01.720Z,69.18
2018-04-11T03:00:37.064Z,69.54
2018-04-11T03:03:11.669Z,69.68
2018-04-11T03:05:46.288Z,70.53
2018-04-11T03:08:20.772Z,70.44
2018-04-11T03:10:56.050Z,70.58
2018-04-11T03:13:31.399Z,71.13
2018-04-11T03:16:05.988Z,71.38
2018-04-11T03:18:41.299Z,71.54
2018-04-11T03:21:16.541Z,71.70
2018-04-11T03:23:51.016Z,71.43
2018-04-11T03:26:25.608Z,71.78
2018-04-11T03:29:00.174Z,73.00
2018-04-11T03:31:34.709Z,73.31
2018-04-11T03:34:09.372Z,73.53
2018-04-11T03:36:43.833Z,73.91
2018-04-11T03:39:18.374Z,74.20
2018-04-11T03:41:52.945Z,74.36
2018-04-11T03:44:28.242Z,74.07
2018-04-11T03:47:02.887Z,74.20
2018-04-11T03:49:37.483Z,74.54
2018-04-11T03:52:11.993Z,74.78
2018-04-11T03:54:47.173Z,74.89
2018-04-11T03:57:21.801Z,74.62
2018-04-11T03:59:56.495Z,74.82
2018-04-11T04:02:30.934Z,74.32
2018-04-11T04:05:05.368Z,74.48
2018-04-11T04:07:40.046Z,74.16
2018-04-11T04:10:15.425Z,74.02
2018-04-11T04:12:49.996Z,73.71
2018-04-11T04:15:42.308Z,73.47
2018-04-11T04:18:34.902Z,72.92
2018-04-11T04:21:10.330Z,72.90
2018-04-11T04:23:44.951Z,72.69
2018-04-11T04:26:19.639Z,72.54
2018-04-11T04:28:54.186Z,72.50
2018-04-11T04:31:29.445Z,71.93
2018-04-11T04:34:04.065Z,71.91
2018-04-11T04:36:38.659Z,72.10
2018-04-11T04:39:13.942Z,71.87
2018-04-11T04:41:48.513Z,72.33
2018-04-11T04:44:23.122Z,72.50
2018-04-11T04:46:58.512Z,72.53
2018-04-11T04:49:33.170Z,72.05
2018-04-11T04:52:07.834Z,72.12
2018-04-11T04:54:43.116Z,71.98
2018-04-11T04:57:17.716Z,72.09
2018-04-11T04:59:47.051Z,71.92
2018-04-11T05:02:16.364Z,71.80
2018-04-11T05:04:45.697Z,71.62
2018-04-11T05:07:15.051Z,71.57
2018-04-11T05:09:44.374Z,71.53
2018-04-11T05:12:13.683Z,70.47
2018-04-11T05:14:43.809Z,70.98
2018-04-11T05:17:13.893Z,70.60
2018-04-11T05:19:43.216Z,70.68
2018-04-11T05:22:23.390Z,70.85
2018-04-11T05:24:56.212Z,71.50
2018-04-11T05:27:25.563Z,71.31
2018-04-11T05:29:55.680Z,72.07
2018-04-11T05:32:25.119Z,71.82
2018-04-11T05:34:54.432Z,71.78
2018-04-11T05:37:23.751Z,71.93
2018-04-11T05:39:53.120Z,72.08
2018-04-11T05:42:22.448Z,72.06
2018-04-11T05:44:51.761Z,72.10
2018-04-11T05:47:21.125Z,72.03
2018-04-11T05:49:51.255Z,71.69
2018-04-11T05:52:21.335Z,71.83
2018-04-11T05:54:50.670Z,72.02
2018-04-11T05:57:20.055Z,71.68
2018-04-11T05:59:49.409Z,71.76
2018-04-11T06:02:18.759Z,71.57
2018-04-11T06:04:48.169Z,71.65
2018-04-11T06:07:17.560Z,71.93
2018-04-11T06:09:46.944Z,71.87
2018-04-11T06:12:17.064Z,71.64
2018-04-11T06:14:46.415Z,71.62
2018-04-11T06:17:18.432Z,71.77
2018-04-11T06:19:48.037Z,71.79
2018-04-11T06:22:17.435Z,71.61
2018-04-11T06:24:46.772Z,71.56
2018-04-11T06:27:16.924Z,71.66
2018-04-11T06:29:46.266Z,71.68
2018-04-11T06:32:15.586Z,71.76
2018-04-11T06:34:44.960Z,71.97
2018-04-11T06:37:14.279Z,71.96
2018-04-11T06:39:43.612Z,71.89
2018-04-11T06:42:12.963Z,72.00
2018-04-11T06:44:42.357Z,72.24
2018-04-11T06:47:11.704Z,72.26
2018-04-11T06:49:41.112Z,72.11
2018-04-11T06:52:12.916Z,72.01
2018-04-11T06:54:43.007Z,71.58
2018-04-11T06:57:12.371Z,71.04
2018-04-11T06:59:41.708Z,70.75
2018-04-11T07:02:11.048Z,70.57
2018-04-11T07:04:41.197Z,70.64
2018-04-11T07:07:10.526Z,70.36
2018-04-11T07:09:39.899Z,70.71
2018-04-11T07:12:09.231Z,71.05
2018-04-11T07:14:38.602Z,70.86
2018-04-11T07:17:07.962Z,70.76
2018-04-11T07:19:37.366Z,70.95
2018-04-11T07:22:07.394Z,71.02
2018-04-11T07:24:38.269Z,70.83
2018-04-11T07:27:07.636Z,70.70
2018-04-11T07:29:37.037Z,70.58
2018-04-11T07:32:07.129Z,70.80
2018-04-11T07:34:36.462Z,70.83
2018-04-11T07:37:06.618Z,70.89
2018-04-11T07:39:35.933Z,70.74
2018-04-11T07:42:05.269Z,70.74
2018-04-11T07:44:34.631Z,70.59
2018-04-11T07:47:04.068Z,70.45
2018-04-11T07:49:33.429Z,70.46
2018-04-11T07:52:02.840Z,70.46
2018-04-11T07:54:32.228Z,70.78
2018-04-11T07:57:01.552Z,71.06
2018-04-11T07:59:30.891Z,70.61
2018-04-11T08:02:00.286Z,70.47
2018-04-11T08:04:29.645Z,70.31
2018-04-11T08:06:58.972Z,69.89
2018-04-11T08:09:28.383Z,69.63
2018-04-11T08:11:57.738Z,69.62
2018-04-11T08:14:27.852Z,69.34
2018-04-11T08:16:57.226Z,69.07
2018-04-11T08:19:26.577Z,68.85
2018-04-11T08:21:56.744Z,68.60
2018-04-11T08:24:26.122Z,68.47
2018-04-11T08:26:55.793Z,68.59
2018-04-11T08:29:25.183Z,68.80
2018-04-11T08:31:54.556Z,69.02
2018-04-11T08:34:23.905Z,69.47
2018-04-11T08:36:55.073Z,69.39
2018-04-11T08:39:24.424Z,69.60
2018-04-11T08:41:53.831Z,69.31
2018-04-11T08:44:23.177Z,69.30
2018-04-11T08:46:53.274Z,68.76
2018-04-11T08:49:23.045Z,68.94
2018-04-11T08:51:52.616Z,68.69
2018-04-11T08:54:21.949Z,68.95
2018-04-11T08:56:51.318Z,68.62
2018-04-11T08:59:21.439Z,68.42
2018-04-11T09:01:51.554Z,68.10
2018-04-11T09:04:21.766Z,67.91
2018-04-11T09:06:51.093Z,67.73
2018-04-11T09:09:21.028Z,67.37
2018-04-11T09:11:50.367Z,66.99
2018-04-11T09:14:19.771Z,66.32
2018-04-11T09:16:49.099Z,65.78
2018-04-11T09:19:18.440Z,66.05
2018-04-11T09:21:47.791Z,66.15
2018-04-11T09:24:17.117Z,65.72
2018-04-11T09:26:46.432Z,65.73
2018-04-11T09:29:16.561Z,65.94
2018-04-11T09:31:46.804Z,65.90
2018-04-11T09:34:16.108Z,66.29
2018-04-11T09:36:46.215Z,66.46
2018-04-11T09:39:15.548Z,65.53
2018-04-11T09:41:44.898Z,64.51
2018-04-11T09:44:14.974Z,65.04
2018-04-11T09:46:44.334Z,64.88
2018-04-11T09:49:14.465Z,63.56
2018-04-11T09:51:44.590Z,63.81
2018-04-11T09:54:14.568Z,64.27
2018-04-11T09:56:45.600Z,63.71
2018-04-11T09:59:15.260Z,63.65
2018-04-11T10:01:50.825Z,62.95
2018-04-11T10:04:20.145Z,62.64
2018-04-11T10:06:49.485Z,62.50
2018-04-11T10:09:19.629Z,61.62
2018-04-11T10:11:49.207Z,61.58
2018-04-11T10:14:18.543Z,61.03
2018-04-11T10:16:47.895Z,60.14
2018-04-11T10:19:17.239Z,60.67
2018-04-11T10:21:47.330Z,60.34
2018-04-11T10:24:16.705Z,60.75
2018-04-11T10:26:46.081Z,61.03
2018-04-11T10:29:15.444Z,61.05
2018-04-11T10:31:44.791Z,61.24
2018-04-11T10:34:14.125Z,61.02
2018-04-11T10:36:43.478Z,61.44
2018-04-11T10:39:13.600Z,61.23
2018-04-11T10:41:43.714Z,61.10
2018-04-11T10:44:13.833Z,60.86
2018-04-11T10:46:44.387Z,60.95
2018-04-11T10:49:13.847Z,60.89
2018-04-11T10:51:43.193Z,59.72
2018-04-11T10:54:12.533Z,60.03
2018-04-11T10:56:41.894Z,59.96
2018-04-11T10:59:11.995Z,59.12
2018-04-11T11:01:42.135Z,59.17
2018-04-11T11:04:12.357Z,58.67
2018-04-11T11:06:42.451Z,58.03
2018-04-11T11:09:11.801Z,56.93
2018-04-11T11:11:41.132Z,55.61
2018-04-11T11:14:10.448Z,53.91
2018-04-11T11:16:40.386Z,53.29
2018-04-11T11:19:10.496Z,53.05
2018-04-11T11:21:39.848Z,53.67
2018-04-11T11:24:09.973Z,53.42
2018-04-11T11:26:39.342Z,53.06
2018-04-11T11:29:10.327Z,52.98
2018-04-11T11:31:39.976Z,52.53
2018-04-11T11:34:09.331Z,53.09
2018-04-11T11:36:39.454Z,53.18
2018-04-11T11:39:08.803Z,52.80
2018-04-11T11:41:38.147Z,51.50
2018-04-11T11:44:07.742Z,50.31
2018-04-11T11:46:37.846Z,48.51
2018-04-11T11:49:07.277Z,47.64
2018-04-11T11:51:36.632Z,47.81
2018-04-11T11:54:05.971Z,47.02
2018-04-11T11:56:36.059Z,47.15
2018-04-11T11:59:05.403Z,47.28
2018-04-11T12:01:35.536Z,47.48
2018-04-11T12:04:04.934Z,48.16
2018-04-11T12:06:35.239Z,48.06
2018-04-11T12:09:09.940Z,49.27
2018-04-11T12:11:52.576Z,50.38
2018-04-11T12:14:22.123Z,54.99
2018-04-11T12:16:52.435Z,57.98
2018-04-11T12:19:21.808Z,59.18
2018-04-11T12:21:51.144Z,59.95
2018-04-11T12:24:20.511Z,59.86
2018-04-11T12:26:50.671Z,60.09
2018-04-11T12:29:20.744Z,60.21
2018-04-11T12:31:50.109Z,60.72
2018-04-11T12:34:19.432Z,60.77
2018-04-11T12:36:48.786Z,60.88
2018-04-11T12:39:18.161Z,61.72
2018-04-11T12:41:48.432Z,62.15
2018-04-11T12:44:17.747Z,62.47
2018-04-11T12:46:47.078Z,61.50
2018-04-11T12:49:16.486Z,60.90
2018-04-11T12:51:45.785Z,61.00
2018-04-11T12:54:15.144Z,60.44
2018-04-11T12:56:44.529Z,58.47
2018-04-11T12:59:14.698Z,57.24
2018-04-11T13:01:44.159Z,56.85
2018-04-11T13:04:14.288Z,56.03
2018-04-11T13:06:44.455Z,56.35
2018-04-11T13:09:13.792Z,56.28
2018-04-11T13:11:43.149Z,57.18
2018-04-11T13:14:12.578Z,57.37
2018-04-11T13:16:41.906Z,57.76
2018-04-11T13:19:11.291Z,58.09
2018-04-11T13:21:41.663Z,58.01
2018-04-11T13:24:10.979Z,56.27
2018-04-11T13:26:40.371Z,55.19
2018-04-11T13:29:09.716Z,53.83
2018-04-11T13:31:39.128Z,53.06
2018-04-11T13:34:08.436Z,52.40
2018-04-11T13:36:37.774Z,53.23
2018-04-11T13:39:07.896Z,53.65
2018-04-11T13:41:37.263Z,54.50
2018-04-11T13:44:08.104Z,56.89
2018-04-11T13:46:37.446Z,57.70
2018-04-11T13:49:06.765Z,58.21
2018-04-11T13:51:36.739Z,58.58
2018-04-11T13:54:06.162Z,59.38
2018-04-11T13:56:37.134Z,59.46
2018-04-11T13:59:06.488Z,60.09
2018-04-11T14:01:36.659Z,60.07
2018-04-11T14:04:06.006Z,60.75
2018-04-11T14:06:35.338Z,60.74
2018-04-11T14:09:06.502Z,60.75
2018-04-11T14:11:35.873Z,60.68
2018-04-11T14:14:06.006Z,60.54
2018-04-11T14:16:36.245Z,60.45
2018-04-11T14:19:06.265Z,60.47
2018-04-11T14:21:35.623Z,61.32
2018-04-11T14:24:05.583Z,61.56
2018-04-11T14:26:34.936Z,61.91
2018-04-11T14:29:04.308Z,62.27
2018-04-11T14:31:33.751Z,62.08
2018-04-11T14:34:03.051Z,62.51
2018-04-11T14:36:33.034Z,62.10
2018-04-11T14:39:02.439Z,61.35
2018-04-11T14:41:31.775Z,60.91
2018-04-11T14:44:01.128Z,60.62
2018-04-11T14:46:31.361Z,60.41
2018-04-11T14:49:00.713Z,60.52
2018-04-11T14:51:30.090Z,60.23
2018-04-11T14:53:59.457Z,60.07
2018-04-11T14:56:28.811Z,59.85
2018-04-11T14:58:58.152Z,59.57
2018-04-11T15:01:28.271Z,59.40
2018-04-11T15:03:58.367Z,59.84
2018-04-11T15:06:27.711Z,59.87
2018-04-11T15:08:57.060Z,59.51
2018-04-11T15:11:26.410Z,59.72
2018-04-11T15:13:56.542Z,59.89
2018-04-11T15:16:25.892Z,59.52
2018-04-11T15:18:55.226Z,59.62
2018-04-11T15:21:27.579Z,59.52
2018-04-11T15:23:56.919Z,59.36
2018-04-11T15:26:27.068Z,59.01
2018-04-11T15:28:56.391Z,58.90
2018-04-11T15:31:26.065Z,58.44
2018-04-11T15:33:55.413Z,58.68
2018-04-11T15:36:24.753Z,58.68
2018-04-11T15:38:54.839Z,58.76
2018-04-11T15:41:24.192Z,58.90
2018-04-11T15:43:53.503Z,58.60
2018-04-11T15:46:40.220Z,57.94
2018-04-11T15:49:10.932Z,58.11
2018-04-11T15:51:41.002Z,58.46
2018-04-11T15:54:10.366Z,58.21
2018-04-11T15:56:39.697Z,58.17
2018-04-11T15:59:09.043Z,58.04
2018-04-11T16:01:39.166Z,57.94
2018-04-11T16:04:09.271Z,57.93
2018-04-11T16:06:38.623Z,58.02
2018-04-11T16:09:08.122Z,58.31
2018-04-11T16:11:38.212Z,58.00
2018-04-11T16:14:07.535Z,58.01
2018-04-11T16:16:37.666Z,58.06
2018-04-11T16:19:07.018Z,58.24
2018-04-11T16:21:36.382Z,58.21
2018-04-11T16:24:05.707Z,58.31
2018-04-11T16:26:35.025Z,57.86
2018-04-11T16:29:05.361Z,57.64
2018-04-11T16:31:34.785Z,57.29
2018-04-11T16:34:04.096Z,57.43
2018-04-11T16:36:34.170Z,57.01
2018-04-11T16:39:03.504Z,56.97
2018-04-11T16:41:33.126Z,57.05
2018-04-11T16:44:03.243Z,56.92
2018-04-11T16:46:33.326Z,56.82
2018-04-11T16:49:02.661Z,56.92
2018-04-11T16:51:31.974Z,56.56
2018-04-11T16:54:02.048Z,56.36
2018-04-11T16:56:31.390Z,56.33
2018-04-11T16:59:01.775Z,56.19
2018-04-11T17:01:31.112Z,55.96
2018-04-11T17:04:00.425Z,55.81
2018-04-11T17:06:30.482Z,55.68
2018-04-11T17:09:00.501Z,55.55
2018-04-11T17:11:29.845Z,55.20
2018-04-11T17:13:59.139Z,51.70
2018-04-11T17:16:28.483Z,51.04
2018-04-11T17:18:58.560Z,51.01
2018-04-11T17:21:45.621Z,50.73
2018-04-11T17:24:33.985Z,50.56
2018-04-11T17:27:21.245Z,51.15
2018-04-11T17:30:08.531Z,50.98
2018-04-11T17:32:37.874Z,51.26
2018-04-11T17:35:07.166Z,51.79
2018-04-11T17:37:37.785Z,51.74
2018-04-11T17:40:07.103Z,51.36
2018-04-11T17:42:36.403Z,51.74
2018-04-11T17:45:05.759Z,51.44
2018-04-11T17:47:40.720Z,51.25
2018-04-11T17:50:10.094Z,51.50
2018-04-11T17:55:14.843Z,51.41
2018-04-11T17:57:44.972Z,51.87
2018-04-11T18:00:18.545Z,52.14
2018-04-11T18:02:47.870Z,53.09
2018-04-11T18:05:17.938Z,52.79
2018-04-11T18:07:47.256Z,53.08
2018-04-11T18:10:16.599Z,53.34
2018-04-11T18:12:46.671Z,53.19
2018-04-11T18:15:15.986Z,53.61
2018-04-11T18:17:45.295Z,53.51
2018-04-11T18:20:14.592Z,53.61
2018-04-11T18:22:43.916Z,54.05
2018-04-11T18:25:13.246Z,54.20
2018-04-11T18:27:42.571Z,54.64
2018-04-11T18:30:11.875Z,54.61
2018-04-11T18:32:41.198Z,55.15
2018-04-11T18:35:10.499Z,55.67
2018-04-11T18:37:39.812Z,56.13
2018-04-11T18:40:09.133Z,56.40
2018-04-11T18:42:38.439Z,56.68
2018-04-11T18:45:08.556Z,56.86
2018-04-11T18:47:37.894Z,56.94
2018-04-11T18:50:07.190Z,57.09
2018-04-11T18:52:36.516Z,57.38
2018-04-11T18:55:05.820Z,57.83
2018-04-11T18:57:35.120Z,58.35
2018-04-11T19:00:04.502Z,58.46
2018-04-11T19:02:33.890Z,58.77
2018-04-11T19:05:03.973Z,59.26
2018-04-11T19:07:33.293Z,59.07
2018-04-11T19:10:02.613Z,58.98
2018-04-11T19:12:32.694Z,59.61
2018-04-11T19:15:02.004Z,61.38
2018-04-11T19:17:31.325Z,61.48
2018-04-11T19:20:00.623Z,61.64
2018-04-11T19:22:29.980Z,62.20
2018-04-11T19:24:59.338Z,62.26
2018-04-11T19:27:28.648Z,62.43
2018-04-11T19:29:58.726Z,63.47
2018-04-11T19:32:28.056Z,64.23
2018-04-11T19:34:57.352Z,63.86
2018-04-11T19:37:26.710Z,63.45
2018-04-11T19:39:56.026Z,63.79
2018-04-11T19:42:25.339Z,63.93
2018-04-11T19:44:54.657Z,63.29
2018-04-11T19:47:23.965Z,62.93
2018-04-11T19:49:53.315Z,63.31
2018-04-11T19:52:23.398Z,64.11
2018-04-11T19:54:52.708Z,65.23
2018-04-11T19:57:22.909Z,66.02
2018-04-11T19:59:52.240Z,65.45
2018-04-11T20:02:22.328Z,65.28
2018-04-11T20:04:51.677Z,65.20
2018-04-11T20:07:20.987Z,65.06
2018-04-11T20:09:50.309Z,65.22
2018-04-11T20:12:19.636Z,64.65
2018-04-11T20:14:49.176Z,64.52
2018-04-11T20:17:18.557Z,64.81
2018-04-11T20:19:47.892Z,65.22
2018-04-11T20:22:17.234Z,65.41
2018-04-11T20:24:46.563Z,65.29
2018-04-11T20:27:15.863Z,65.25
2018-04-11T20:29:45.225Z,65.07
2018-04-11T20:32:14.590Z,64.98
2018-04-11T20:34:43.905Z,64.80
2018-04-11T20:37:13.970Z,64.78
2018-04-11T20:39:43.294Z,64.98
2018-04-11T20:42:12.628Z,64.93
2018-04-11T20:44:42.704Z,65.11
2018-04-11T20:47:12.027Z,65.25
2018-04-11T20:49:41.364Z,65.27
2018-04-11T20:52:10.661Z,64.76
2018-04-11T20:54:39.993Z,64.69
2018-04-11T20:57:09.337Z,64.79
2018-04-11T20:59:38.662Z,64.51
2018-04-11T21:02:08.772Z,64.69
2018-04-11T21:04:38.851Z,65.10
2018-04-11T21:07:08.186Z,65.22
2018-04-11T21:09:37.548Z,65.09
2018-04-11T21:12:06.861Z,65.39
2018-04-11T21:14:36.176Z,65.48
2018-04-11T21:17:05.515Z,65.97
2018-04-11T21:19:35.603Z,66.13
2018-04-11T21:22:04.942Z,66.43
2018-04-11T21:24:35.039Z,66.44
2018-04-11T21:27:04.453Z,66.96
2018-04-11T21:29:34.556Z,67.15
2018-04-11T21:32:03.874Z,67.57
2018-04-11T21:34:33.991Z,67.60
2018-04-11T21:37:03.327Z,68.12
2018-04-11T21:39:32.669Z,68.35
2018-04-11T21:42:01.987Z,68.64
2018-04-11T21:44:31.339Z,68.77
2018-04-11T21:47:00.675Z,68.84
2018-04-11T21:49:30.002Z,69.00
2018-04-11T21:51:59.370Z,69.03
2018-04-11T21:54:28.706Z,69.13
2018-04-11T21:56:58.019Z,69.36
2018-04-11T21:59:28.116Z,69.62
2018-04-11T22:01:57.427Z,69.61
2018-04-11T22:04:26.781Z,69.76
2018-04-11T22:06:56.095Z,69.63
2018-04-11T22:09:25.433Z,69.89
2018-04-11T22:11:54.775Z,69.91
2018-04-11T22:14:24.095Z,69.77
2018-04-11T22:16:55.754Z,70.12
2018-04-11T22:19:25.098Z,70.09
2018-04-11T22:21:54.442Z,70.05
2018-04-11T22:24:24.546Z,70.12
2018-04-11T22:26:54.627Z,70.20
2018-04-11T22:29:23.965Z,70.16
2018-04-11T22:31:53.300Z,70.42
2018-04-11T22:34:22.624Z,70.76
2018-04-11T22:36:51.971Z,70.75
2018-04-11T22:39:21.272Z,70.70
2018-04-11T22:41:50.615Z,70.71
2018-04-11T22:44:19.953Z,70.68
2018-04-11T22:46:49.274Z,70.50
2018-04-11T22:49:18.631Z,70.39
2018-04-11T22:51:47.948Z,70.52
2018-04-11T22:54:17.279Z,70.63
2018-04-11T22:56:46.636Z,70.80
2018-04-11T22:59:16.285Z,71.14
2018-04-11T23:01:46.510Z,71.26
2018-04-11T23:04:15.870Z,71.31
2018-04-11T23:06:45.185Z,71.38
2018-04-11T23:09:14.545Z,71.42
2018-04-11T23:11:44.686Z,71.19
2018-04-11T23:14:14.013Z,71.29
2018-04-11T23:16:43.376Z,71.48
2018-04-11T23:19:13.481Z,71.30
2018-04-11T23:21:42.805Z,71.60
2018-04-11T23:24:12.942Z,71.82
2018-04-11T23:26:42.279Z,71.93
2018-04-11T23:29:11.629Z,71.87
2018-04-11T23:31:41.746Z,72.05
2018-04-11T23:34:11.845Z,72.05
2018-04-11T23:36:41.204Z,72.22
2018-04-11T23:39:10.533Z,72.42
2018-04-11T23:41:39.864Z,72.70
2018-04-11T23:44:09.243Z,72.81
2018-04-11T23:46:38.599Z,72.92
2018-04-11T23:49:07.934Z,72.70
2018-04-11T23:51:37.297Z,72.84
2018-04-11T23:54:07.442Z,72.97
2018-04-11T23:56:36.764Z,72.87
2018-04-11T23:59:06.857Z,72.59
